»·PEaware :: N982CA KBLH-KTOA

N982CA :: KBLH-KTOA

FLIGHT INFORMATION

Flight Status: Arrived
Operator: Privately registered:
United States
More flights under this callsign
Pilot: Anonymous 15639 (15639)
Aircraft: Unknown
(DA62)
More flights by this aircraft type
Origin: KBLH Blythe
United States
Destination: KTOA Zamperini
United States
More flights between these airports :: More routes between these airports
Route: +PSP V388 ACINS V283 SLI
File this flight plan on PilotEdge
Remarks:
Altitude:
(Current/Filed)
10,000ft
Speed:
(Current/Filed)
170kts
Departed: 23-Sep-18 09:43 AM
Arrived: 23-Sep-18 10:54 AM
Distance/Time
Traveled:
182nm/1:11
Distance/Time
To Go:
Arrived

Flight Plot

Page will automatically refresh every two minutes.

Flight plan parsing failed; only flown route is shown


Map Options




Map Legend


Flown Route
Filed Route
Departure Airport
Arrival Airport
Navaid (VOR, NDB)
Fix

Horizontal Profiles

Position Reports

Time Latitude Longitude Heading Altitude Ground
Speed
23-Sep-18 09:23 33.614355 -114.712866 359 401ft 0kts
23-Sep-18 09:24 33.614355 -114.712866 359 401ft 0kts
23-Sep-18 09:25 33.614355 -114.712866 359 401ft 0kts
23-Sep-18 09:26 33.614355 -114.712866 359 401ft 0kts
23-Sep-18 09:27 33.614355 -114.712866 359 401ft 0kts
23-Sep-18 09:28 33.614355 -114.712866 359 401ft 0kts
23-Sep-18 09:29 33.614355 -114.712866 359 401ft 0kts
23-Sep-18 09:30 33.614355 -114.712866 359 401ft 0kts
23-Sep-18 09:31 33.614355 -114.712866 359 401ft 0kts
23-Sep-18 09:32 33.614355 -114.712866 359 401ft 0kts
23-Sep-18 09:33 33.614355 -114.712866 359 401ft 0kts
23-Sep-18 09:34 33.614355 -114.712866 359 401ft 0kts
23-Sep-18 09:35 33.614355 -114.712866 359 401ft 0kts
23-Sep-18 09:36 33.614355 -114.712866 359 401ft 0kts
23-Sep-18 09:37 33.614355 -114.712866 359 401ft 0kts
23-Sep-18 09:38 33.614529 -114.712870 356 401ft 1kts
23-Sep-18 09:39 33.615148 -114.712487 80 401ft 7kts
23-Sep-18 09:40 33.615145 -114.709859 89 401ft 9kts
23-Sep-18 09:41 33.615220 -114.706987 58 401ft 6kts
23-Sep-18 09:42 33.615705 -114.706197 8 401ft 0kts
23-Sep-18 09:43 33.615705 -114.706197 8 401ft 0kts
23-Sep-18 09:44 33.615824 -114.706177 2 401ft 4kts
23-Sep-18 09:45 33.616611 -114.719089 270 490ft 97kts
23-Sep-18 09:46 33.616868 -114.754716 272 1316ft 118kts
23-Sep-18 09:47 33.618479 -114.797395 273 2016ft 139kts
23-Sep-18 09:48 33.618548 -114.845497 273 2689ft 143kts
23-Sep-18 09:49 33.623881 -114.893434 280 3382ft 147kts
23-Sep-18 09:50 33.633436 -114.941294 286 4073ft 148kts
23-Sep-18 09:51 33.646578 -114.988756 289 4733ft 151kts
23-Sep-18 09:52 33.655520 -115.037550 278 5410ft 151kts
23-Sep-18 09:53 33.663184 -115.087541 278 6054ft 151kts
23-Sep-18 09:54 33.670977 -115.136727 278 6775ft 150kts
23-Sep-18 09:55 33.678836 -115.186157 278 7457ft 151kts
23-Sep-18 09:56 33.686725 -115.235837 277 8124ft 152kts
23-Sep-18 09:57 33.694629 -115.285947 279 8755ft 155kts
23-Sep-18 09:58 33.702763 -115.337306 279 9376ft 157kts
23-Sep-18 09:59 33.710924 -115.389040 279 9972ft 160kts
23-Sep-18 10:00 33.719879 -115.446111 279 9994ft 182kts
23-Sep-18 10:01 33.729365 -115.506512 279 9936ft 183kts
23-Sep-18 10:02 33.738710 -115.566439 279 9936ft 182kts
23-Sep-18 10:03 33.748029 -115.626320 279 9937ft 181kts
23-Sep-18 10:04 33.757278 -115.685775 277 9937ft 180kts
23-Sep-18 10:05 33.766309 -115.744315 277 9936ft 176kts
23-Sep-18 10:06 33.775235 -115.802300 276 9936ft 177kts
23-Sep-18 10:07 33.784228 -115.861008 276 9936ft 179kts
23-Sep-18 10:08 33.793273 -115.920114 276 9911ft 181kts
23-Sep-18 10:09 33.802433 -115.980055 276 9826ft 181kts
23-Sep-18 10:10 33.811456 -116.039457 276 9827ft 180kts
23-Sep-18 10:11 33.820389 -116.098485 276 9827ft 179kts
23-Sep-18 10:12 33.829309 -116.157580 276 9827ft 179kts
23-Sep-18 10:13 33.838181 -116.216543 276 9827ft 179kts
23-Sep-18 10:14 33.847009 -116.275503 276 9876ft 177kts
23-Sep-18 10:15 33.855838 -116.334537 276 9882ft 180kts
23-Sep-18 10:16 33.864692 -116.393951 276 9882ft 181kts
23-Sep-18 10:17 33.875980 -116.453193 283 9882ft 182kts
23-Sep-18 10:18 33.890811 -116.511446 283 9882ft 182kts
23-Sep-18 10:19 33.905643 -116.569836 283 9882ft 182kts
23-Sep-18 10:20 33.920454 -116.628281 283 9882ft 182kts
23-Sep-18 10:21 33.935146 -116.686369 283 9882ft 182kts
23-Sep-18 10:22 33.948333 -116.744428 266 9884ft 178kts
23-Sep-18 10:23 33.946525 -116.804149 263 9889ft 177kts
23-Sep-18 10:24 33.944493 -116.863545 263 9919ft 176kts
23-Sep-18 10:25 33.942473 -116.921927 263 10011ft 176kts
23-Sep-18 10:26 33.940698 -116.971307 261 10009ft 177kts
23-Sep-18 10:27 33.911154 -117.014749 223 10010ft 169kts
23-Sep-18 10:28 33.873156 -117.062778 223 10010ft 170kts
23-Sep-18 10:29 33.846043 -117.097128 223 10010ft 170kts
23-Sep-18 10:30 33.813606 -117.138198 223 10010ft 170kts
23-Sep-18 10:31 33.781228 -117.179437 228 10008ft 170kts
23-Sep-18 10:32 33.753987 -117.225572 231 9335ft 167kts
23-Sep-18 10:33 33.728419 -117.271394 231 8643ft 163kts
23-Sep-18 10:34 33.704010 -117.316867 231 8027ft 162kts
23-Sep-18 10:35 33.679373 -117.362666 231 8010ft 163kts
23-Sep-18 10:36 33.654831 -117.408321 231 8010ft 163kts
23-Sep-18 10:37 33.630116 -117.453463 231 8008ft 159kts
23-Sep-18 10:38 33.606046 -117.497852 249 7999ft 163kts
23-Sep-18 10:39 33.617336 -117.552789 281 8009ft 172kts
23-Sep-18 10:40 33.631550 -117.607948 281 8000ft 172kts
23-Sep-18 10:41 33.645715 -117.662535 281 8000ft 171kts
23-Sep-18 10:42 33.659622 -117.717638 281 8001ft 175kts
23-Sep-18 10:43 33.673428 -117.774207 281 8000ft 177kts
23-Sep-18 10:44 33.687199 -117.830952 281 7921ft 176kts
23-Sep-18 10:45 33.700375 -117.885011 281 7191ft 165kts
23-Sep-18 10:46 33.713335 -117.939705 281 6207ft 173kts
23-Sep-18 10:47 33.725493 -117.994462 281 5214ft 158kts
23-Sep-18 10:48 33.732460 -118.043922 273 4326ft 147kts
23-Sep-18 10:49 33.737017 -118.092658 273 3525ft 146kts
23-Sep-18 10:50 33.741530 -118.141264 273 2726ft 147kts
23-Sep-18 10:51 33.745519 -118.190128 273 2021ft 141kts
23-Sep-18 10:52 33.748455 -118.235957 272 2005ft 134kts
23-Sep-18 10:53 33.761450 -118.275298 305 1554ft 121kts
23-Sep-18 10:54 33.780714 -118.304391 306 845ft 95kts
23-Sep-18 10:55 33.795615 -118.326867 307 308ft 84kts
23-Sep-18 10:56 33.805545 -118.342675 288 107ft 21kts
23-Sep-18 10:57 33.805986 -118.344942 223 107ft 8kts
23-Sep-18 10:58 33.805632 -118.347254 290 107ft 6kts
23-Sep-18 10:59 33.805792 -118.347647 92 107ft 0kts
23-Sep-18 11:00 33.805792 -118.347647 92 107ft 0kts
23-Sep-18 11:01 33.805792 -118.347647 92 107ft 0kts
23-Sep-18 11:02 33.805792 -118.347647 92 107ft 0kts
23-Sep-18 11:03 33.805792 -118.347647 92 107ft 0kts

Navigation Log

Ident Type
Flight plan parsing failed, navigation log unavailable